createdAt,value
2017-08-23T00:00:14.492Z,2.90
2017-08-23T00:02:42.639Z,3.10
2017-08-23T00:06:35.464Z,3.53
2017-08-23T00:09:04.308Z,2.60
2017-08-23T00:11:32.437Z,3.40
2017-08-23T00:14:00.552Z,2.80
2017-08-23T00:16:28.687Z,2.67
2017-08-23T00:18:56.814Z,2.80
2017-08-23T00:21:24.951Z,2.63
2017-08-23T00:23:53.084Z,3.73
2017-08-23T00:26:21.220Z,3.57
2017-08-23T00:28:49.663Z,3.03
2017-08-23T00:31:17.785Z,2.77
2017-08-23T00:33:45.924Z,2.73
2017-08-23T00:36:14.064Z,3.33
2017-08-23T00:38:42.199Z,3.23
2017-08-23T00:41:10.320Z,3.30
2017-08-23T00:43:38.465Z,2.93
2017-08-23T00:46:06.583Z,2.30
2017-08-23T00:48:34.784Z,3.00
2017-08-23T00:51:02.910Z,3.20
2017-08-23T00:53:31.040Z,2.60
2017-08-23T00:55:59.187Z,3.10
2017-08-23T00:58:27.343Z,3.40
2017-08-23T01:00:55.465Z,2.97
2017-08-23T01:03:23.608Z,2.70
2017-08-23T01:05:51.712Z,2.23
2017-08-23T01:08:19.876Z,2.70
2017-08-23T01:10:48.003Z,2.87
2017-08-23T01:13:16.136Z,3.40
2017-08-23T01:15:44.273Z,2.70
2017-08-23T01:18:12.424Z,3.23
2017-08-23T01:20:40.536Z,2.60
2017-08-23T01:23:09.707Z,3.03
2017-08-23T01:25:37.832Z,2.60
2017-08-23T01:28:05.960Z,2.77
2017-08-23T01:30:34.101Z,3.00
2017-08-23T01:33:02.243Z,3.30
2017-08-23T01:35:30.363Z,2.67
2017-08-23T01:37:58.484Z,2.57
2017-08-23T01:40:26.628Z,2.47
2017-08-23T01:42:54.752Z,3.17
2017-08-23T01:45:22.864Z,2.97
2017-08-23T01:47:50.976Z,3.27
2017-08-23T01:50:19.712Z,2.93
2017-08-23T01:52:47.854Z,3.10
2017-08-23T01:55:15.992Z,2.20
2017-08-23T01:57:44.124Z,2.97
2017-08-23T02:00:12.244Z,2.90
2017-08-23T02:02:40.399Z,2.60
2017-08-23T02:05:08.517Z,2.90
2017-08-23T02:07:36.645Z,2.43
2017-08-23T02:10:05.429Z,2.83
2017-08-23T02:12:33.584Z,2.70
2017-08-23T02:15:01.720Z,2.63
2017-08-23T02:17:29.892Z,2.90
2017-08-23T02:19:58.024Z,2.93
2017-08-23T02:22:26.167Z,2.83
2017-08-23T02:24:54.296Z,2.90
2017-08-23T02:27:22.426Z,2.80
2017-08-23T02:29:50.555Z,3.17
2017-08-23T02:32:18.700Z,2.60
2017-08-23T02:34:46.823Z,3.00
2017-08-23T02:37:14.935Z,2.43
2017-08-23T02:39:43.065Z,2.70
2017-08-23T02:42:11.304Z,2.73
2017-08-23T02:44:39.813Z,2.70
2017-08-23T02:47:07.946Z,2.83
2017-08-23T02:49:36.153Z,2.57
2017-08-23T02:52:04.272Z,2.40
2017-08-23T02:54:32.415Z,2.47
2017-08-23T02:57:00.576Z,2.73
2017-08-23T02:59:28.720Z,2.40
2017-08-23T03:01:56.851Z,2.23
2017-08-23T03:04:24.985Z,2.40
2017-08-23T03:06:53.140Z,2.50
2017-08-23T03:09:21.273Z,2.73
2017-08-23T03:11:49.389Z,2.77
2017-08-23T03:14:17.516Z,2.53
2017-08-23T03:16:45.673Z,2.43
2017-08-23T03:19:13.807Z,2.53
2017-08-23T03:21:41.941Z,2.70
2017-08-23T03:24:10.072Z,1.90
2017-08-23T03:26:38.196Z,2.87
2017-08-23T03:29:06.339Z,2.97
2017-08-23T03:31:34.477Z,2.60
2017-08-23T03:34:02.600Z,2.40
2017-08-23T03:36:30.741Z,2.50
2017-08-23T03:38:58.889Z,3.60
2017-08-23T03:41:27.008Z,2.67
2017-08-23T03:43:55.208Z,2.83
2017-08-23T03:46:23.328Z,3.07
2017-08-23T03:48:51.448Z,2.30
2017-08-23T03:51:19.585Z,2.77
2017-08-23T03:53:47.691Z,2.70
2017-08-23T03:56:15.812Z,2.67
2017-08-23T03:58:43.953Z,2.77
2017-08-23T04:01:12.116Z,2.60
2017-08-23T04:03:40.260Z,2.40
2017-08-23T04:06:08.398Z,2.30
2017-08-23T04:08:36.572Z,2.67
2017-08-23T04:11:04.692Z,2.43
2017-08-23T04:13:32.840Z,2.20
2017-08-23T04:16:01.004Z,2.13
2017-08-23T04:18:29.140Z,2.33
2017-08-23T04:20:57.484Z,2.17
2017-08-23T04:23:26.449Z,3.30
2017-08-23T04:25:55.148Z,2.67
2017-08-23T04:28:23.284Z,2.33
2017-08-23T04:30:52.944Z,2.43
2017-08-23T04:33:21.852Z,2.60
2017-08-23T04:35:49.991Z,2.70
2017-08-23T04:38:18.115Z,2.40
2017-08-23T04:40:46.260Z,2.37
2017-08-23T04:43:14.409Z,2.83
2017-08-23T04:45:42.517Z,2.70
2017-08-23T04:48:10.668Z,2.57
2017-08-23T04:50:38.797Z,2.40
2017-08-23T04:53:06.928Z,2.40
2017-08-23T04:55:35.068Z,3.17
2017-08-23T04:58:03.188Z,2.80
2017-08-23T05:00:31.312Z,2.83
2017-08-23T05:02:59.451Z,2.67
2017-08-23T05:05:27.577Z,2.87
2017-08-23T05:07:55.704Z,2.90
2017-08-23T05:10:23.862Z,2.73
2017-08-23T05:12:52.657Z,2.60
2017-08-23T05:15:20.780Z,2.20
2017-08-23T05:17:48.912Z,3.17
2017-08-23T05:20:17.107Z,2.77
2017-08-23T05:22:45.228Z,2.77
2017-08-23T05:25:13.369Z,2.50
2017-08-23T05:27:41.503Z,2.17
2017-08-23T05:30:09.639Z,2.37
2017-08-23T05:32:37.772Z,2.87
2017-08-23T05:35:05.904Z,3.00
2017-08-23T05:37:34.051Z,2.73
2017-08-23T05:40:02.188Z,2.77
2017-08-23T05:45:05.270Z,3.20
2017-08-23T05:47:34.252Z,2.60
2017-08-23T05:50:02.392Z,2.60
2017-08-23T05:53:54.985Z,2.67
2017-08-23T05:56:23.109Z,2.37
2017-08-23T05:58:51.258Z,2.30
2017-08-23T06:01:19.749Z,2.83
2017-08-23T06:03:47.885Z,2.50
2017-08-23T06:06:16.019Z,2.90
2017-08-23T06:08:44.144Z,2.80
2017-08-23T06:13:47.440Z,2.53
2017-08-23T06:16:15.719Z,2.40
2017-08-23T06:18:43.832Z,2.63
2017-08-23T06:21:11.972Z,3.23
2017-08-23T06:23:40.144Z,2.50
2017-08-23T06:26:08.290Z,2.87
2017-08-23T06:31:14.167Z,2.50
2017-08-23T06:33:42.561Z,2.33
2017-08-23T06:36:10.694Z,3.03
2017-08-23T06:38:38.840Z,2.83
2017-08-23T06:41:06.977Z,2.40
2017-08-23T06:43:35.107Z,2.90
2017-08-23T06:46:03.239Z,2.37
2017-08-23T06:48:31.380Z,2.53
2017-08-23T06:50:59.504Z,2.57
2017-08-23T06:53:29.336Z,2.20
2017-08-23T06:55:57.470Z,2.37
2017-08-23T06:58:25.654Z,2.80
2017-08-23T07:00:53.776Z,2.77
2017-08-23T07:03:21.896Z,2.80
2017-08-23T07:05:50.028Z,2.63
2017-08-23T07:08:18.145Z,2.97
2017-08-23T07:10:46.269Z,3.10
2017-08-23T07:13:14.401Z,2.87
2017-08-23T07:15:42.512Z,2.70
2017-08-23T07:18:10.623Z,2.50
2017-08-23T07:20:38.764Z,2.87
2017-08-23T07:23:06.873Z,3.37
2017-08-23T07:25:35.004Z,2.80
2017-08-23T07:28:03.132Z,2.50
2017-08-23T07:30:31.248Z,2.80
2017-08-23T07:35:37.165Z,3.13
2017-08-23T07:38:06.388Z,2.83
2017-08-23T07:40:34.519Z,2.80
2017-08-23T07:43:02.705Z,2.90
2017-08-23T07:45:31.528Z,2.73
2017-08-23T07:47:59.684Z,3.60
2017-08-23T07:50:27.844Z,2.83
2017-08-23T07:52:55.983Z,3.00
2017-08-23T07:55:24.150Z,3.13
2017-08-23T07:57:52.281Z,3.67
2017-08-23T08:00:20.466Z,2.80
2017-08-23T08:02:48.597Z,2.50
2017-08-23T08:05:16.744Z,2.60
2017-08-23T08:07:44.864Z,4.07
2017-08-23T08:10:13.004Z,3.03
2017-08-23T08:12:41.137Z,2.80
2017-08-23T08:15:09.277Z,3.30
2017-08-23T08:17:37.421Z,3.20
2017-08-23T08:20:05.545Z,3.53
2017-08-23T08:22:33.674Z,2.87
2017-08-23T08:25:01.805Z,3.00
2017-08-23T08:27:29.978Z,2.73
2017-08-23T08:29:58.084Z,3.53
2017-08-23T08:32:26.217Z,2.60
2017-08-23T08:34:54.360Z,3.77
2017-08-23T08:37:22.553Z,3.30
2017-08-23T08:39:50.693Z,3.03
2017-08-23T08:42:18.826Z,3.60
2017-08-23T08:44:46.976Z,3.60
2017-08-23T08:47:15.245Z,3.30
2017-08-23T08:49:43.398Z,3.20
2017-08-23T08:52:11.522Z,3.80
2017-08-23T08:54:39.649Z,2.80
2017-08-23T08:57:07.816Z,2.80
2017-08-23T08:59:35.999Z,3.67
2017-08-23T09:02:04.140Z,4.00
2017-08-23T09:04:32.324Z,3.37
2017-08-23T09:07:00.489Z,4.20
2017-08-23T09:09:28.612Z,3.17
2017-08-23T09:11:56.807Z,3.03
2017-08-23T09:14:24.925Z,2.80
2017-08-23T09:16:53.777Z,3.50
2017-08-23T09:19:21.916Z,3.23
2017-08-23T09:21:50.048Z,3.20
2017-08-23T09:24:18.192Z,3.43
2017-08-23T09:26:46.341Z,3.40
2017-08-23T09:31:52.501Z,3.63
2017-08-23T09:34:20.669Z,3.50
2017-08-23T09:36:48.854Z,3.00
2017-08-23T09:39:17.092Z,2.40
2017-08-23T09:41:45.347Z,4.00
2017-08-23T09:44:13.484Z,3.73
2017-08-23T09:46:41.692Z,3.23
2017-08-23T09:49:09.867Z,3.43
2017-08-23T09:51:37.992Z,3.67
2017-08-23T09:54:06.721Z,4.90
2017-08-23T09:56:34.841Z,3.40
2017-08-23T09:59:03.012Z,3.10
2017-08-23T10:01:31.132Z,3.80
2017-08-23T10:03:59.272Z,3.60
2017-08-23T10:06:27.400Z,3.80
2017-08-23T10:08:55.620Z,3.90
2017-08-23T10:11:23.757Z,3.77
2017-08-23T10:13:51.907Z,4.30
2017-08-23T10:16:20.044Z,4.13
2017-08-23T10:18:48.180Z,4.07
2017-08-23T10:21:16.304Z,3.93
2017-08-23T10:23:44.428Z,4.17
2017-08-23T10:26:12.596Z,3.30
2017-08-23T10:28:41.228Z,4.17
2017-08-23T10:31:09.384Z,4.73
2017-08-23T10:33:37.530Z,3.30
2017-08-23T10:36:05.661Z,5.43
2017-08-23T10:38:33.809Z,4.70
2017-08-23T10:43:37.368Z,4.00
2017-08-23T10:46:05.660Z,4.17
2017-08-23T10:48:34.095Z,3.10
2017-08-23T10:51:02.233Z,3.30
2017-08-23T10:53:30.381Z,3.10
2017-08-23T10:55:58.530Z,3.50
2017-08-23T10:58:26.673Z,3.10
2017-08-23T11:00:54.817Z,2.90
2017-08-23T11:03:22.966Z,3.30
2017-08-23T11:05:51.105Z,3.30
2017-08-23T11:08:19.236Z,3.73
2017-08-23T11:10:47.421Z,3.00
2017-08-23T11:13:15.560Z,2.63
2017-08-23T11:15:43.728Z,3.00
2017-08-23T11:18:11.948Z,2.73
2017-08-23T11:20:40.076Z,3.63
2017-08-23T11:23:08.237Z,3.00
2017-08-23T11:25:36.360Z,2.87
2017-08-23T11:28:04.496Z,2.60
2017-08-23T11:30:32.656Z,2.53
2017-08-23T11:33:01.377Z,3.50
2017-08-23T11:35:29.552Z,2.70
2017-08-23T11:37:57.761Z,2.70
2017-08-23T11:40:25.896Z,2.30
2017-08-23T11:42:54.023Z,2.97
2017-08-23T11:45:22.172Z,2.73
2017-08-23T11:47:50.312Z,2.90
2017-08-23T11:50:18.517Z,2.90
2017-08-23T11:52:46.675Z,3.23
2017-08-23T11:55:14.821Z,3.27
2017-08-23T11:57:42.968Z,2.77
2017-08-23T12:00:11.109Z,2.70
2017-08-23T12:02:39.264Z,2.77
2017-08-23T12:05:07.438Z,2.90
2017-08-23T12:07:36.497Z,2.20
2017-08-23T12:10:04.622Z,2.70
2017-08-23T12:12:33.542Z,2.90
2017-08-23T12:15:01.773Z,2.83
2017-08-23T12:17:29.921Z,2.53
2017-08-23T12:19:58.081Z,3.50
2017-08-23T12:22:26.204Z,3.40
2017-08-23T12:24:54.342Z,3.03
2017-08-23T12:27:22.516Z,2.87
2017-08-23T12:29:50.667Z,3.10
2017-08-23T12:32:18.841Z,3.17
2017-08-23T12:34:46.991Z,2.53
2017-08-23T12:37:15.202Z,2.20
2017-08-23T12:39:43.381Z,3.03
2017-08-23T12:42:42.570Z,3.40
2017-08-23T12:45:10.864Z,2.37
2017-08-23T12:47:38.984Z,2.73
2017-08-23T12:50:07.161Z,3.20
2017-08-23T12:52:35.292Z,2.60
2017-08-23T12:55:03.503Z,2.73
2017-08-23T12:57:32.062Z,2.47
2017-08-23T13:00:00.201Z,2.70
2017-08-23T13:02:28.351Z,2.57
2017-08-23T13:04:56.586Z,3.53
2017-08-23T13:07:24.764Z,2.50
2017-08-23T13:09:52.896Z,2.47
2017-08-23T13:12:21.028Z,2.97
2017-08-23T13:14:49.215Z,3.10
2017-08-23T13:17:17.356Z,2.43
2017-08-23T13:19:45.520Z,3.10
2017-08-23T13:22:13.658Z,2.97
2017-08-23T13:24:41.812Z,3.30
2017-08-23T13:27:09.924Z,3.23
2017-08-23T13:29:38.073Z,3.23
2017-08-23T13:32:06.224Z,2.57
2017-08-23T13:34:34.361Z,2.93
2017-08-23T13:37:02.649Z,3.23
2017-08-23T13:39:30.822Z,2.27
2017-08-23T13:41:58.989Z,2.63
2017-08-23T13:44:27.176Z,3.27
2017-08-23T13:46:55.312Z,2.97
2017-08-23T13:49:23.466Z,2.77
2017-08-23T13:51:51.612Z,2.80
2017-08-23T13:54:19.748Z,2.80
2017-08-23T13:56:47.934Z,2.80
2017-08-23T13:59:16.084Z,2.77
2017-08-23T14:01:44.273Z,3.37
2017-08-23T14:04:12.409Z,3.10
2017-08-23T14:06:40.633Z,2.80
2017-08-23T14:09:08.829Z,3.20
2017-08-23T14:11:36.964Z,2.87
2017-08-23T14:14:05.105Z,2.40
2017-08-23T14:16:33.621Z,3.17
2017-08-23T14:19:01.780Z,2.90
2017-08-23T14:21:30.278Z,2.43
2017-08-23T14:23:58.418Z,2.83
2017-08-23T14:26:26.568Z,3.43
2017-08-23T14:28:54.737Z,2.57
2017-08-23T14:31:22.868Z,3.03
2017-08-23T14:33:51.071Z,2.93
2017-08-23T14:36:19.361Z,2.50
2017-08-23T14:38:47.533Z,2.80
2017-08-23T14:41:15.684Z,2.70
2017-08-23T14:43:43.839Z,3.33
2017-08-23T14:46:12.013Z,3.03
2017-08-23T14:48:40.271Z,3.80
2017-08-23T14:51:08.413Z,2.60
2017-08-23T14:53:36.637Z,3.30
2017-08-23T14:56:04.993Z,2.97
2017-08-23T14:58:33.148Z,2.70
2017-08-23T15:01:01.284Z,3.17
2017-08-23T15:03:29.420Z,3.33
2017-08-23T15:05:57.607Z,3.03
2017-08-23T15:08:25.764Z,3.00
2017-08-23T15:10:53.893Z,3.27
2017-08-23T15:13:22.130Z,2.47
2017-08-23T15:15:51.153Z,3.20
2017-08-23T15:18:19.320Z,3.40
2017-08-23T15:20:47.505Z,3.37
2017-08-23T15:23:15.749Z,3.27
2017-08-23T15:25:43.892Z,3.37
2017-08-23T15:28:12.028Z,2.90
2017-08-23T15:30:40.176Z,2.90
2017-08-23T15:33:08.380Z,4.53
2017-08-23T15:35:36.608Z,3.67
2017-08-23T15:38:04.852Z,4.30
2017-08-23T15:40:33.020Z,3.27
2017-08-23T15:43:01.170Z,3.43
2017-08-23T15:45:29.369Z,3.57
2017-08-23T15:47:57.506Z,3.50
2017-08-23T15:50:25.647Z,2.40
2017-08-23T15:52:53.784Z,3.37
2017-08-23T15:55:21.942Z,2.77
2017-08-23T15:57:50.068Z,3.50
2017-08-23T16:00:18.260Z,2.73
2017-08-23T16:02:46.414Z,2.57
2017-08-23T16:05:14.556Z,3.90
2017-08-23T16:07:42.688Z,3.10
2017-08-23T16:10:10.851Z,3.80
2017-08-23T16:12:38.988Z,2.93
2017-08-23T16:15:07.143Z,3.20
2017-08-23T16:17:35.276Z,3.43
2017-08-23T16:20:03.392Z,2.70
2017-08-23T16:22:31.536Z,3.47
2017-08-23T16:24:59.693Z,3.20
2017-08-23T16:27:27.824Z,3.20
2017-08-23T16:29:56.000Z,2.77
2017-08-23T16:32:24.148Z,3.60
2017-08-23T16:34:52.308Z,3.10
2017-08-23T16:37:20.453Z,3.83
2017-08-23T16:39:49.080Z,3.20
2017-08-23T16:42:17.241Z,3.00
2017-08-23T16:44:45.391Z,3.07
2017-08-23T16:47:14.248Z,3.40
2017-08-23T16:49:42.486Z,3.60
2017-08-23T16:52:10.585Z,3.27
2017-08-23T16:54:38.718Z,3.57
2017-08-23T16:57:06.845Z,3.30
2017-08-23T16:59:34.981Z,2.90
2017-08-23T17:02:03.143Z,2.80
2017-08-23T17:04:31.261Z,3.63
2017-08-23T17:06:59.408Z,3.50
2017-08-23T17:09:27.561Z,3.23
2017-08-23T17:11:55.696Z,2.67
2017-08-23T17:14:23.856Z,3.40
2017-08-23T17:16:51.981Z,3.80
2017-08-23T17:19:20.138Z,3.10
2017-08-23T17:21:48.284Z,3.70
2017-08-23T17:24:16.416Z,3.50
2017-08-23T17:26:44.575Z,3.83
2017-08-23T17:29:12.707Z,3.20
2017-08-23T17:31:40.856Z,3.83
2017-08-23T17:34:09.017Z,4.27
2017-08-23T17:36:37.149Z,3.60
2017-08-23T17:39:05.909Z,3.27
2017-08-23T17:41:34.044Z,3.70
2017-08-23T17:44:02.184Z,3.33
2017-08-23T17:46:30.340Z,4.40
2017-08-23T17:48:58.610Z,4.00
2017-08-23T17:51:26.732Z,4.10
2017-08-23T17:53:54.856Z,4.10
2017-08-23T17:56:22.987Z,3.70
2017-08-23T17:58:51.229Z,3.50
2017-08-23T18:01:19.439Z,4.13
2017-08-23T18:03:47.580Z,4.03
2017-08-23T18:06:15.724Z,4.07
2017-08-23T18:08:43.853Z,3.50
2017-08-23T18:11:11.990Z,4.10
2017-08-23T18:13:40.131Z,4.23
2017-08-23T18:16:08.252Z,4.23
2017-08-23T18:18:36.401Z,3.90
2017-08-23T18:21:04.540Z,3.90
2017-08-23T18:23:32.672Z,4.03
2017-08-23T18:26:00.812Z,3.90
2017-08-23T18:28:28.963Z,4.20
2017-08-23T18:30:57.371Z,3.70
2017-08-23T18:33:25.524Z,4.13
2017-08-23T18:35:53.676Z,3.37
2017-08-23T18:38:21.836Z,3.23
2017-08-23T18:40:49.992Z,4.30
2017-08-23T18:43:18.196Z,3.70
2017-08-23T18:45:46.325Z,4.13
2017-08-23T18:48:14.468Z,3.70
2017-08-23T18:50:42.601Z,4.00
2017-08-23T18:53:10.780Z,4.27
2017-08-23T18:55:38.919Z,3.37
2017-08-23T18:58:07.061Z,3.80
2017-08-23T19:00:35.207Z,3.53
2017-08-23T19:03:03.377Z,3.37
2017-08-23T19:05:31.511Z,4.20
2017-08-23T19:07:59.684Z,4.43
2017-08-23T19:10:27.815Z,4.23
2017-08-23T19:12:55.939Z,3.70
2017-08-23T19:15:24.076Z,4.07
2017-08-23T19:17:52.232Z,3.93
2017-08-23T19:20:20.357Z,3.70
2017-08-23T19:22:48.502Z,4.27
2017-08-23T19:25:16.632Z,3.90
2017-08-23T19:30:19.727Z,4.43
2017-08-23T19:32:47.849Z,3.13
2017-08-23T19:35:16.021Z,4.20
2017-08-23T19:37:44.135Z,3.60
2017-08-23T19:40:12.248Z,4.03
2017-08-23T19:42:40.398Z,3.60
2017-08-23T19:45:08.609Z,3.70
2017-08-23T19:47:36.746Z,4.23
2017-08-23T19:50:04.888Z,3.67
2017-08-23T19:52:33.016Z,3.70
2017-08-23T19:55:01.192Z,3.53
2017-08-23T19:57:30.393Z,4.07
2017-08-23T19:59:58.568Z,3.23
2017-08-23T20:02:26.715Z,3.87
2017-08-23T20:04:54.875Z,3.97
2017-08-23T20:07:22.988Z,3.97
2017-08-23T20:09:51.141Z,3.90
2017-08-23T20:12:19.272Z,4.20
2017-08-23T20:14:48.173Z,3.50
2017-08-23T20:17:16.309Z,3.57
2017-08-23T20:19:44.455Z,3.80
2017-08-23T20:22:13.046Z,4.70
2017-08-23T20:24:41.172Z,4.27
2017-08-23T20:27:10.100Z,4.20
2017-08-23T20:29:38.304Z,3.77
2017-08-23T20:32:06.461Z,4.07
2017-08-23T20:34:34.576Z,4.20
2017-08-23T20:37:03.591Z,4.27
2017-08-23T20:39:31.994Z,3.90
2017-08-23T20:42:00.128Z,4.93
2017-08-23T20:44:28.252Z,4.43
2017-08-23T20:46:56.453Z,4.17
2017-08-23T20:49:24.580Z,4.60
2017-08-23T20:51:52.735Z,5.07
2017-08-23T20:56:58.257Z,4.43
2017-08-23T20:59:26.648Z,4.37
2017-08-23T21:01:54.787Z,4.03
2017-08-23T21:04:23.008Z,4.33
2017-08-23T21:06:51.148Z,3.90
2017-08-23T21:09:19.290Z,3.83
2017-08-23T21:11:47.923Z,4.37
2017-08-23T21:14:16.071Z,4.83
2017-08-23T21:16:44.293Z,3.93
2017-08-23T21:19:12.436Z,3.97
2017-08-23T21:21:40.573Z,4.53
2017-08-23T21:24:08.695Z,4.13
2017-08-23T21:26:37.058Z,4.30
2017-08-23T21:29:05.180Z,4.63
2017-08-23T21:31:33.345Z,4.33
2017-08-23T21:34:01.483Z,4.37
2017-08-23T21:36:29.657Z,4.50
2017-08-23T21:38:57.792Z,4.20
2017-08-23T21:41:25.967Z,3.90
2017-08-23T21:43:54.076Z,4.37
2017-08-23T21:46:22.260Z,4.50
2017-08-23T21:49:53.417Z,4.13
2017-08-23T21:52:21.564Z,4.27
2017-08-23T21:54:49.693Z,3.53
2017-08-23T21:57:17.852Z,4.30
2017-08-23T21:59:46.791Z,4.33
2017-08-23T22:02:14.993Z,4.50
2017-08-23T22:04:43.152Z,5.13
2017-08-23T22:07:11.282Z,4.30
2017-08-23T22:09:39.409Z,4.40
2017-08-23T22:12:07.609Z,4.20
2017-08-23T22:14:35.757Z,4.50
2017-08-23T22:17:03.885Z,4.10
2017-08-23T22:19:32.027Z,4.10
2017-08-23T22:22:00.141Z,4.40
2017-08-23T22:24:28.525Z,4.10
2017-08-23T22:26:56.844Z,4.70
2017-08-23T22:29:24.959Z,4.20
2017-08-23T22:31:53.129Z,4.83
2017-08-23T22:34:21.279Z,4.07
2017-08-23T22:36:49.411Z,4.10
2017-08-23T22:39:18.492Z,3.97
2017-08-23T22:41:46.632Z,4.70
2017-08-23T22:44:14.820Z,4.10
2017-08-23T22:46:42.964Z,4.87
2017-08-23T22:49:11.088Z,4.23
2017-08-23T22:51:39.212Z,4.83
2017-08-23T22:54:07.356Z,3.90
2017-08-23T22:56:35.483Z,4.60
2017-08-23T22:59:03.660Z,4.17
2017-08-23T23:01:31.788Z,4.50
2017-08-23T23:03:59.950Z,4.33
2017-08-23T23:06:28.076Z,4.30
2017-08-23T23:08:56.212Z,4.93
2017-08-23T23:11:24.356Z,4.93
2017-08-23T23:13:52.460Z,4.73
2017-08-23T23:16:20.588Z,4.50
2017-08-23T23:18:48.732Z,4.70
2017-08-23T23:21:16.859Z,4.97
2017-08-23T23:23:44.984Z,4.67
2017-08-23T23:26:13.146Z,4.60
2017-08-23T23:28:41.304Z,4.30
2017-08-23T23:31:09.421Z,4.10
2017-08-23T23:33:37.561Z,3.90
2017-08-23T23:36:05.699Z,3.83
2017-08-23T23:38:33.840Z,3.47
2017-08-23T23:41:02.016Z,3.73
2017-08-23T23:43:30.200Z,4.50
2017-08-23T23:45:58.388Z,4.40
2017-08-23T23:48:26.572Z,3.63
2017-08-23T23:50:54.703Z,4.30
2017-08-23T23:53:22.849Z,3.83
2017-08-23T23:55:50.980Z,4.60
2017-08-23T23:58:19.114Z,4.43
